sensor_id;sensor_type;location;lat;lon;timestamp;pressure;altitude;pressure_sealevel;temperature;humidity
61870;BME280;47810;42.264;23.826;2023-02-17T00:01:31;94647.78;;;1.66;49.58
61870;BME280;47810;42.264;23.826;2023-02-17T00:03:56;94658.53;;;1.49;50.04
61870;BME280;47810;42.264;23.826;2023-02-17T00:06:25;94654.81;;;1.62;49.65
61870;BME280;47810;42.264;23.826;2023-02-17T00:08:59;94656.44;;;1.68;49.98
61870;BME280;47810;42.264;23.826;2023-02-17T00:11:27;94646.41;;;1.48;50.04
61870;BME280;47810;42.264;23.826;2023-02-17T00:13:55;94645.66;;;1.42;50.48
61870;BME280;47810;42.264;23.826;2023-02-17T00:16:23;94646.47;;;1.45;50.08
61870;BME280;47810;42.264;23.826;2023-02-17T00:19:00;94641.94;;;1.55;49.53
61870;BME280;47810;42.264;23.826;2023-02-17T00:21:27;94632.09;;;1.71;49.63
61870;BME280;47810;42.264;23.826;2023-02-17T00:23:55;94634.31;;;1.46;50.85
61870;BME280;47810;42.264;23.826;2023-02-17T00:26:23;94635.09;;;1.49;50.92
61870;BME280;47810;42.264;23.826;2023-02-17T00:28:49;94625.28;;;1.65;50.00
61870;BME280;47810;42.264;23.826;2023-02-17T00:31:19;94622.50;;;1.73;49.70
61870;BME280;47810;42.264;23.826;2023-02-17T00:33:45;94632.91;;;1.73;50.37
61870;BME280;47810;42.264;23.826;2023-02-17T00:36:17;94621.94;;;1.57;52.03
61870;BME280;47810;42.264;23.826;2023-02-17T00:38:45;94622.69;;;1.63;52.02
61870;BME280;47810;42.264;23.826;2023-02-17T00:41:15;94619.97;;;1.70;52.32
61870;BME280;47810;42.264;23.826;2023-02-17T00:43:42;94614.38;;;1.43;52.74
61870;BME280;47810;42.264;23.826;2023-02-17T00:46:09;94608.22;;;1.49;52.58
61870;BME280;47810;42.264;23.826;2023-02-17T00:48:37;94614.28;;;1.49;52.96
61870;BME280;47810;42.264;23.826;2023-02-17T00:51:02;94604.81;;;1.45;53.02
61870;BME280;47810;42.264;23.826;2023-02-17T00:53:30;94608.19;;;1.50;52.97
61870;BME280;47810;42.264;23.826;2023-02-17T00:56:01;94602.34;;;1.39;53.68
61870;BME280;47810;42.264;23.826;2023-02-17T00:58:27;94598.63;;;1.52;54.41
61870;BME280;47810;42.264;23.826;2023-02-17T01:00:56;94599.63;;;1.45;55.15
61870;BME280;47810;42.264;23.826;2023-02-17T01:03:23;94601.69;;;1.73;53.37
61870;BME280;47810;42.264;23.826;2023-02-17T01:05:50;94602.22;;;1.45;53.63
61870;BME280;47810;42.264;23.826;2023-02-17T01:08:16;94595.84;;;1.60;53.74
61870;BME280;47810;42.264;23.826;2023-02-17T01:10:43;94598.44;;;1.61;53.96
61870;BME280;47810;42.264;23.826;2023-02-17T01:13:10;94587.53;;;1.41;53.48
61870;BME280;47810;42.264;23.826;2023-02-17T01:15:55;94577.75;;;1.55;52.81
61870;BME280;47810;42.264;23.826;2023-02-17T01:18:23;94573.72;;;1.39;53.98
61870;BME280;47810;42.264;23.826;2023-02-17T01:23:23;94583.22;;;1.40;53.86
61870;BME280;47810;42.264;23.826;2023-02-17T01:25:49;94578.28;;;1.25;55.09
61870;BME280;47810;42.264;23.826;2023-02-17T01:28:17;94574.72;;;1.32;56.16
61870;BME280;47810;42.264;23.826;2023-02-17T01:30:45;94569.53;;;1.30;56.64
61870;BME280;47810;42.264;23.826;2023-02-17T01:33:11;94570.53;;;1.22;56.54
61870;BME280;47810;42.264;23.826;2023-02-17T01:35:37;94569.63;;;1.24;56.34
61870;BME280;47810;42.264;23.826;2023-02-17T01:38:05;94568.19;;;1.09;58.80
61870;BME280;47810;42.264;23.826;2023-02-17T01:40:32;94565.44;;;1.15;58.54
61870;BME280;47810;42.264;23.826;2023-02-17T01:42:59;94561.19;;;1.11;56.86
61870;BME280;47810;42.264;23.826;2023-02-17T01:45:38;94564.53;;;1.20;57.46
61870;BME280;47810;42.264;23.826;2023-02-17T01:48:16;94555.50;;;0.91;57.35
61870;BME280;47810;42.264;23.826;2023-02-17T01:50:44;94550.31;;;0.91;57.06
61870;BME280;47810;42.264;23.826;2023-02-17T01:53:13;94544.66;;;1.15;56.50
61870;BME280;47810;42.264;23.826;2023-02-17T01:55:43;94556.47;;;1.33;56.61
61870;BME280;47810;42.264;23.826;2023-02-17T02:00:39;94543.94;;;1.07;58.43
61870;BME280;47810;42.264;23.826;2023-02-17T02:03:05;94541.94;;;1.22;57.66
61870;BME280;47810;42.264;23.826;2023-02-17T02:05:34;94544.00;;;1.04;58.34
61870;BME280;47810;42.264;23.826;2023-02-17T02:08:00;94547.66;;;0.94;58.58
61870;BME280;47810;42.264;23.826;2023-02-17T02:10:32;94539.59;;;1.08;59.37
61870;BME280;47810;42.264;23.826;2023-02-17T02:12:58;94535.31;;;1.05;59.41
61870;BME280;47810;42.264;23.826;2023-02-17T02:15:24;94539.66;;;1.05;59.54
61870;BME280;47810;42.264;23.826;2023-02-17T02:17:58;94530.31;;;0.93;59.36
61870;BME280;47810;42.264;23.826;2023-02-17T02:20:37;94541.16;;;0.68;60.06
61870;BME280;47810;42.264;23.826;2023-02-17T02:34:04;94525.50;;;0.72;59.95
61870;BME280;47810;42.264;23.826;2023-02-17T02:36:37;94528.81;;;0.80;59.10
61870;BME280;47810;42.264;23.826;2023-02-17T02:39:15;94527.91;;;0.82;58.91
61870;BME280;47810;42.264;23.826;2023-02-17T02:41:51;94527.16;;;0.76;59.11
61870;BME280;47810;42.264;23.826;2023-02-17T02:44:19;94531.41;;;0.81;58.16
61870;BME280;47810;42.264;23.826;2023-02-17T02:47:04;94532.41;;;0.73;59.21
61870;BME280;47810;42.264;23.826;2023-02-17T02:49:30;94534.66;;;0.94;59.71
61870;BME280;47810;42.264;23.826;2023-02-17T03:02:07;94540.00;;;0.83;58.95
61870;BME280;47810;42.264;23.826;2023-02-17T03:09:55;94541.53;;;0.97;58.92
61870;BME280;47810;42.264;23.826;2023-02-17T03:12:28;94541.25;;;0.62;59.38
61870;BME280;47810;42.264;23.826;2023-02-17T03:14:57;94539.53;;;0.61;59.48
61870;BME280;47810;42.264;23.826;2023-02-17T03:17:24;94535.84;;;0.75;59.08
61870;BME280;47810;42.264;23.826;2023-02-17T03:22:23;94550.59;;;0.73;58.71
61870;BME280;47810;42.264;23.826;2023-02-17T03:24:51;94542.16;;;0.60;58.36
61870;BME280;47810;42.264;23.826;2023-02-17T03:27:21;94549.19;;;0.53;59.23
61870;BME280;47810;42.264;23.826;2023-02-17T03:29:46;94546.81;;;0.38;59.81
61870;BME280;47810;42.264;23.826;2023-02-17T03:32:18;94548.94;;;0.68;58.66
61870;BME280;47810;42.264;23.826;2023-02-17T03:37:16;94550.22;;;0.43;58.52
61870;BME280;47810;42.264;23.826;2023-02-17T03:39:42;94547.75;;;0.34;58.88
61870;BME280;47810;42.264;23.826;2023-02-17T03:42:08;94549.53;;;0.29;59.26
61870;BME280;47810;42.264;23.826;2023-02-17T03:44:33;94554.38;;;0.53;59.45
61870;BME280;47810;42.264;23.826;2023-02-17T03:47:00;94551.88;;;0.47;59.56
61870;BME280;47810;42.264;23.826;2023-02-17T03:49:26;94554.84;;;0.77;57.98
61870;BME280;47810;42.264;23.826;2023-02-17T03:51:53;94557.59;;;0.69;57.97
61870;BME280;47810;42.264;23.826;2023-02-17T03:54:19;94552.53;;;0.60;59.32
61870;BME280;47810;42.264;23.826;2023-02-17T03:56:45;94552.47;;;0.64;58.28
61870;BME280;47810;42.264;23.826;2023-02-17T03:59:11;94542.94;;;0.63;58.56
61870;BME280;47810;42.264;23.826;2023-02-17T04:01:37;94535.75;;;0.81;58.57
61870;BME280;47810;42.264;23.826;2023-02-17T04:04:04;94539.91;;;0.37;59.24
61870;BME280;47810;42.264;23.826;2023-02-17T04:06:31;94546.63;;;0.50;59.40
61870;BME280;47810;42.264;23.826;2023-02-17T04:08:57;94544.69;;;0.64;58.94
61870;BME280;47810;42.264;23.826;2023-02-17T04:11:22;94542.50;;;0.91;58.14
61870;BME280;47810;42.264;23.826;2023-02-17T04:13:49;94548.09;;;0.66;57.77
61870;BME280;47810;42.264;23.826;2023-02-17T04:16:19;94543.75;;;0.67;57.76
61870;BME280;47810;42.264;23.826;2023-02-17T04:18:51;94536.84;;;0.67;58.93
61870;BME280;47810;42.264;23.826;2023-02-17T04:21:19;94540.00;;;0.85;58.13
61870;BME280;47810;42.264;23.826;2023-02-17T04:23:45;94531.84;;;1.05;57.06
61870;BME280;47810;42.264;23.826;2023-02-17T04:26:12;94538.25;;;0.85;57.58
61870;BME280;47810;42.264;23.826;2023-02-17T04:28:40;94542.59;;;0.85;57.54
61870;BME280;47810;42.264;23.826;2023-02-17T04:31:07;94530.31;;;0.93;57.30
61870;BME280;47810;42.264;23.826;2023-02-17T04:33:34;94537.19;;;0.97;57.61
61870;BME280;47810;42.264;23.826;2023-02-17T04:36:02;94533.81;;;0.92;58.29
61870;BME280;47810;42.264;23.826;2023-02-17T04:38:30;94526.84;;;0.94;57.61
61870;BME280;47810;42.264;23.826;2023-02-17T04:40:58;94533.75;;;0.97;58.36
61870;BME280;47810;42.264;23.826;2023-02-17T04:43:26;94533.66;;;1.01;59.87
61870;BME280;47810;42.264;23.826;2023-02-17T04:45:52;94530.22;;;0.99;57.79
61870;BME280;47810;42.264;23.826;2023-02-17T04:48:18;94531.91;;;1.03;58.31
61870;BME280;47810;42.264;23.826;2023-02-17T04:50:45;94535.47;;;0.96;58.85
61870;BME280;47810;42.264;23.826;2023-02-17T04:53:12;94521.72;;;0.91;58.60
61870;BME280;47810;42.264;23.826;2023-02-17T04:55:40;94531.94;;;1.00;58.93
61870;BME280;47810;42.264;23.826;2023-02-17T04:58:08;94530.50;;;0.84;58.39
61870;BME280;47810;42.264;23.826;2023-02-17T05:00:36;94535.66;;;0.87;58.99
61870;BME280;47810;42.264;23.826;2023-02-17T05:03:01;94526.78;;;0.97;58.78
61870;BME280;47810;42.264;23.826;2023-02-17T05:05:28;94525.25;;;0.87;58.52
61870;BME280;47810;42.264;23.826;2023-02-17T05:07:55;94528.50;;;0.98;58.34
61870;BME280;47810;42.264;23.826;2023-02-17T05:10:21;94533.09;;;0.84;59.03
61870;BME280;47810;42.264;23.826;2023-02-17T05:12:49;94526.84;;;0.94;60.02
61870;BME280;47810;42.264;23.826;2023-02-17T05:15:15;94518.00;;;1.04;58.86
61870;BME280;47810;42.264;23.826;2023-02-17T05:17:41;94524.63;;;1.21;58.86
61870;BME280;47810;42.264;23.826;2023-02-17T05:20:09;94530.72;;;1.20;59.12
61870;BME280;47810;42.264;23.826;2023-02-17T05:22:35;94528.88;;;1.26;58.52
61870;BME280;47810;42.264;23.826;2023-02-17T05:25:02;94527.75;;;1.38;58.21
61870;BME280;47810;42.264;23.826;2023-02-17T05:27:30;94526.44;;;1.15;58.47
61870;BME280;47810;42.264;23.826;2023-02-17T05:29:56;94535.03;;;1.22;58.84
61870;BME280;47810;42.264;23.826;2023-02-17T05:32:25;94525.41;;;1.24;58.71
61870;BME280;47810;42.264;23.826;2023-02-17T05:34:50;94522.44;;;1.44;57.12
61870;BME280;47810;42.264;23.826;2023-02-17T05:37:16;94502.13;;;1.20;58.32
61870;BME280;47810;42.264;23.826;2023-02-17T05:39:43;94496.53;;;4.71;44.34
61870;BME280;47810;42.264;23.826;2023-02-17T05:42:08;94506.69;;;5.07;43.41
61870;BME280;47810;42.264;23.826;2023-02-17T05:44:35;94501.44;;;6.74;38.98
61870;BME280;47810;42.264;23.826;2023-02-17T05:47:00;94493.47;;;6.76;38.30
61870;BME280;47810;42.264;23.826;2023-02-17T05:49:26;94475.19;;;7.77;34.77
61870;BME280;47810;42.264;23.826;2023-02-17T05:51:51;94487.94;;;8.05;35.09
61870;BME280;47810;42.264;23.826;2023-02-17T05:54:17;94499.59;;;7.99;34.65
61870;BME280;47810;42.264;23.826;2023-02-17T05:56:42;94488.22;;;8.38;33.24
61870;BME280;47810;42.264;23.826;2023-02-17T05:59:08;94489.88;;;8.77;31.79
61870;BME280;47810;42.264;23.826;2023-02-17T06:01:33;94495.72;;;9.01;31.48
61870;BME280;47810;42.264;23.826;2023-02-17T06:04:00;94506.56;;;8.95;31.29
61870;BME280;47810;42.264;23.826;2023-02-17T06:06:30;94499.69;;;9.09;31.07
61870;BME280;47810;42.264;23.826;2023-02-17T06:08:58;94514.91;;;9.22;30.03
61870;BME280;47810;42.264;23.826;2023-02-17T06:11:24;94516.91;;;9.17;31.38
61870;BME280;47810;42.264;23.826;2023-02-17T06:13:50;94520.25;;;8.84;32.37
61870;BME280;47810;42.264;23.826;2023-02-17T06:16:15;94514.03;;;8.49;32.02
61870;BME280;47810;42.264;23.826;2023-02-17T06:18:41;94521.97;;;8.28;33.83
61870;BME280;47810;42.264;23.826;2023-02-17T06:21:07;94545.44;;;7.93;38.17
61870;BME280;47810;42.264;23.826;2023-02-17T06:23:34;94543.38;;;6.96;41.35
61870;BME280;47810;42.264;23.826;2023-02-17T06:25:59;94551.41;;;6.48;43.08
61870;BME280;47810;42.264;23.826;2023-02-17T06:28:26;94555.47;;;6.10;44.64
61870;BME280;47810;42.264;23.826;2023-02-17T06:30:53;94568.44;;;6.14;45.09
61870;BME280;47810;42.264;23.826;2023-02-17T06:33:19;94564.53;;;5.76;45.68
61870;BME280;47810;42.264;23.826;2023-02-17T06:35:49;94566.63;;;5.66;45.86
61870;BME280;47810;42.264;23.826;2023-02-17T06:38:16;94566.84;;;5.60;46.23
61870;BME280;47810;42.264;23.826;2023-02-17T06:40:42;94576.19;;;5.67;46.13
61870;BME280;47810;42.264;23.826;2023-02-17T06:43:13;94583.28;;;5.38;46.55
61870;BME280;47810;42.264;23.826;2023-02-17T06:45:40;94598.00;;;5.43;46.97
61870;BME280;47810;42.264;23.826;2023-02-17T06:48:08;94591.31;;;5.34;47.85
61870;BME280;47810;42.264;23.826;2023-02-17T06:50:34;94587.28;;;5.75;45.92
61870;BME280;47810;42.264;23.826;2023-02-17T06:53:00;94588.88;;;5.79;45.78
61870;BME280;47810;42.264;23.826;2023-02-17T06:55:25;94589.81;;;5.77;45.85
61870;BME280;47810;42.264;23.826;2023-02-17T06:57:54;94586.19;;;5.81;45.74
61870;BME280;47810;42.264;23.826;2023-02-17T07:00:21;94591.97;;;5.91;44.90
61870;BME280;47810;42.264;23.826;2023-02-17T07:02:47;94589.97;;;5.99;44.29
61870;BME280;47810;42.264;23.826;2023-02-17T07:05:13;94579.28;;;6.03;44.45
61870;BME280;47810;42.264;23.826;2023-02-17T07:07:39;94586.94;;;6.10;44.82
61870;BME280;47810;42.264;23.826;2023-02-17T07:10:05;94582.16;;;6.21;44.20
61870;BME280;47810;42.264;23.826;2023-02-17T07:12:32;94582.69;;;6.07;44.11
61870;BME280;47810;42.264;23.826;2023-02-17T07:14:58;94580.50;;;6.18;43.68
61870;BME280;47810;42.264;23.826;2023-02-17T07:17:23;94592.59;;;6.22;43.32
61870;BME280;47810;42.264;23.826;2023-02-17T07:19:49;94596.09;;;6.46;43.58
61870;BME280;47810;42.264;23.826;2023-02-17T07:22:15;94589.81;;;6.27;43.97
61870;BME280;47810;42.264;23.826;2023-02-17T07:24:43;94584.72;;;6.22;43.62
61870;BME280;47810;42.264;23.826;2023-02-17T07:27:08;94589.06;;;6.23;43.74
61870;BME280;47810;42.264;23.826;2023-02-17T07:29:35;94596.78;;;6.03;44.27
61870;BME280;47810;42.264;23.826;2023-02-17T07:32:01;94598.53;;;6.04;44.13
61870;BME280;47810;42.264;23.826;2023-02-17T07:34:27;94599.03;;;6.14;44.35
61870;BME280;47810;42.264;23.826;2023-02-17T07:36:54;94605.25;;;6.35;43.97
61870;BME280;47810;42.264;23.826;2023-02-17T07:39:21;94593.63;;;6.42;43.92
61870;BME280;47810;42.264;23.826;2023-02-17T07:41:47;94597.38;;;6.35;44.36
61870;BME280;47810;42.264;23.826;2023-02-17T07:44:14;94598.97;;;6.39;43.78
61870;BME280;47810;42.264;23.826;2023-02-17T07:46:40;94599.22;;;6.33;44.23
61870;BME280;47810;42.264;23.826;2023-02-17T07:49:07;94599.34;;;6.29;44.38
61870;BME280;47810;42.264;23.826;2023-02-17T07:51:33;94596.75;;;6.28;43.86
61870;BME280;47810;42.264;23.826;2023-02-17T07:54:03;94595.91;;;6.27;44.89
61870;BME280;47810;42.264;23.826;2023-02-17T07:56:28;94601.50;;;6.18;44.77
61870;BME280;47810;42.264;23.826;2023-02-17T07:58:56;94603.25;;;6.41;43.93
61870;BME280;47810;42.264;23.826;2023-02-17T08:01:40;94605.59;;;6.25;44.39
61870;BME280;47810;42.264;23.826;2023-02-17T08:04:06;94604.06;;;6.43;43.54
61870;BME280;47810;42.264;23.826;2023-02-17T08:06:32;94608.13;;;6.52;42.76
61870;BME280;47810;42.264;23.826;2023-02-17T08:08:58;94606.50;;;6.71;42.00
61870;BME280;47810;42.264;23.826;2023-02-17T08:11:46;94607.63;;;6.88;41.33
61870;BME280;47810;42.264;23.826;2023-02-17T08:14:39;94609.22;;;7.14;39.57
61870;BME280;47810;42.264;23.826;2023-02-17T08:17:05;94608.78;;;7.24;39.75
61870;BME280;47810;42.264;23.826;2023-02-17T08:22:03;94613.91;;;7.70;37.54
61870;BME280;47810;42.264;23.826;2023-02-17T08:24:30;94612.41;;;7.85;36.79
61870;BME280;47810;42.264;23.826;2023-02-17T08:26:56;94608.28;;;8.00;37.33
61870;BME280;47810;42.264;23.826;2023-02-17T08:34:54;94616.44;;;8.53;36.09
61870;BME280;47810;42.264;23.826;2023-02-17T08:37:25;94623.97;;;8.42;35.99
61870;BME280;47810;42.264;23.826;2023-02-17T08:42:26;94631.06;;;8.40;36.01
61870;BME280;47810;42.264;23.826;2023-02-17T08:44:53;94629.59;;;8.53;35.18
61870;BME280;47810;42.264;23.826;2023-02-17T08:47:20;94632.94;;;8.38;36.30
61870;BME280;47810;42.264;23.826;2023-02-17T08:58:32;94629.69;;;8.52;37.09
61870;BME280;47810;42.264;23.826;2023-02-17T09:03:56;94640.25;;;8.71;36.68
61870;BME280;47810;42.264;23.826;2023-02-17T09:09:03;94639.53;;;8.86;37.02
61870;BME280;47810;42.264;23.826;2023-02-17T09:13:59;94643.09;;;8.85;39.06
61870;BME280;47810;42.264;23.826;2023-02-17T09:19:29;94630.13;;;8.80;38.71
61870;BME280;47810;42.264;23.826;2023-02-17T09:21:55;94635.53;;;8.77;37.97
61870;BME280;47810;42.264;23.826;2023-02-17T09:24:29;94633.53;;;8.82;39.53
61870;BME280;47810;42.264;23.826;2023-02-17T09:26:58;94641.25;;;8.87;40.34
61870;BME280;47810;42.264;23.826;2023-02-17T09:32:19;94635.84;;;8.90;38.82
61870;BME280;47810;42.264;23.826;2023-02-17T09:34:56;94633.97;;;8.92;38.58
61870;BME280;47810;42.264;23.826;2023-02-17T09:37:23;94631.66;;;8.86;40.16
61870;BME280;47810;42.264;23.826;2023-02-17T09:48:09;94635.88;;;8.70;40.84
61870;BME280;47810;42.264;23.826;2023-02-17T09:58:59;94619.25;;;9.43;37.85
61870;BME280;47810;42.264;23.826;2023-02-17T10:01:29;94621.38;;;9.54;38.23
61870;BME280;47810;42.264;23.826;2023-02-17T10:04:09;94613.91;;;9.62;37.64
61870;BME280;47810;42.264;23.826;2023-02-17T10:22:54;94599.59;;;10.02;39.27
61870;BME280;47810;42.264;23.826;2023-02-17T10:26:23;94589.56;;;9.92;38.02
61870;BME280;47810;42.264;23.826;2023-02-17T10:33:59;94588.16;;;10.19;37.53
61870;BME280;47810;42.264;23.826;2023-02-17T10:41:44;94575.28;;;11.43;30.95
61870;BME280;47810;42.264;23.826;2023-02-17T10:47:00;94566.22;;;11.77;29.10
61870;BME280;47810;42.264;23.826;2023-02-17T10:49:29;94564.09;;;11.54;29.51
61870;BME280;47810;42.264;23.826;2023-02-17T11:00:48;94552.91;;;11.95;29.79
61870;BME280;47810;42.264;23.826;2023-02-17T11:03:17;94557.34;;;11.94;29.82
61870;BME280;47810;42.264;23.826;2023-02-17T11:05:51;94555.75;;;12.06;29.79
61870;BME280;47810;42.264;23.826;2023-02-17T11:11:04;94538.41;;;12.59;27.92
61870;BME280;47810;42.264;23.826;2023-02-17T11:13:42;94540.19;;;12.44;27.94
61870;BME280;47810;42.264;23.826;2023-02-17T11:21:43;94536.91;;;12.96;29.35
61870;BME280;47810;42.264;23.826;2023-02-17T11:24:13;94527.91;;;13.13;28.85
61870;BME280;47810;42.264;23.826;2023-02-17T11:29:20;94529.34;;;13.04;28.97
61870;BME280;47810;42.264;23.826;2023-02-17T11:32:01;94526.47;;;13.49;28.60
61870;BME280;47810;42.264;23.826;2023-02-17T11:34:37;94520.69;;;13.30;28.16
61870;BME280;47810;42.264;23.826;2023-02-17T11:37:20;94517.34;;;13.53;28.15
61870;BME280;47810;42.264;23.826;2023-02-17T11:39:49;94513.31;;;14.00;28.82
61870;BME280;47810;42.264;23.826;2023-02-17T11:59:26;94510.25;;;15.07;27.08
61870;BME280;47810;42.264;23.826;2023-02-17T12:15:39;94508.53;;;15.19;26.12
61870;BME280;47810;42.264;23.826;2023-02-17T12:18:27;94493.38;;;15.32;26.26
61870;BME280;47810;42.264;23.826;2023-02-17T12:26:46;94493.97;;;15.35;26.13
61870;BME280;47810;42.264;23.826;2023-02-17T12:35:32;94502.72;;;15.25;26.59
61870;BME280;47810;42.264;23.826;2023-02-17T12:38:32;94495.44;;;15.40;26.32
61870;BME280;47810;42.264;23.826;2023-02-17T12:40:39;94505.41;;;15.73;25.70
61870;BME280;47810;42.264;23.826;2023-02-17T12:49:20;94490.84;;;15.66;26.38
61870;BME280;47810;42.264;23.826;2023-02-17T12:51:51;94494.59;;;15.39;26.75
61870;BME280;47810;42.264;23.826;2023-02-17T12:54:32;94496.63;;;15.59;27.06
61870;BME280;47810;42.264;23.826;2023-02-17T12:57:06;94501.63;;;15.40;26.93
61870;BME280;47810;42.264;23.826;2023-02-17T12:59:37;94495.91;;;15.57;26.57
61870;BME280;47810;42.264;23.826;2023-02-17T13:10:36;94501.78;;;15.50;26.41
61870;BME280;47810;42.264;23.826;2023-02-17T13:22:04;94483.78;;;15.29;26.44
61870;BME280;47810;42.264;23.826;2023-02-17T13:24:32;94487.16;;;15.07;27.03
61870;BME280;47810;42.264;23.826;2023-02-17T13:27:08;94488.06;;;14.95;26.24
61870;BME280;47810;42.264;23.826;2023-02-17T13:29:38;94487.13;;;14.96;27.82
61870;BME280;47810;42.264;23.826;2023-02-17T13:32:06;94477.56;;;15.42;27.26
61870;BME280;47810;42.264;23.826;2023-02-17T13:34:36;94477.97;;;15.48;26.40
61870;BME280;47810;42.264;23.826;2023-02-17T13:37:36;94485.09;;;15.24;25.67
61870;BME280;47810;42.264;23.826;2023-02-17T13:45:52;94475.91;;;15.04;27.60
61870;BME280;47810;42.264;23.826;2023-02-17T13:51:05;94464.47;;;15.14;26.57
61870;BME280;47810;42.264;23.826;2023-02-17T13:53:39;94467.97;;;14.91;25.54
61870;BME280;47810;42.264;23.826;2023-02-17T13:56:07;94463.69;;;15.01;26.21
61870;BME280;47810;42.264;23.826;2023-02-17T13:58:46;94459.69;;;14.83;27.56
61870;BME280;47810;42.264;23.826;2023-02-17T14:01:25;94458.44;;;14.76;26.65
61870;BME280;47810;42.264;23.826;2023-02-17T14:03:55;94451.97;;;15.04;27.80
61870;BME280;47810;42.264;23.826;2023-02-17T14:06:36;94460.22;;;14.88;27.48
61870;BME280;47810;42.264;23.826;2023-02-17T14:14:24;94459.22;;;15.02;26.73
61870;BME280;47810;42.264;23.826;2023-02-17T14:19:47;94455.66;;;14.90;29.06
61870;BME280;47810;42.264;23.826;2023-02-17T14:30:55;94458.47;;;14.63;28.50
61870;BME280;47810;42.264;23.826;2023-02-17T14:33:23;94452.84;;;14.67;28.47
61870;BME280;47810;42.264;23.826;2023-02-17T14:47:41;94470.16;;;14.48;29.39
61870;BME280;47810;42.264;23.826;2023-02-17T14:53:00;94473.88;;;13.68;29.33
61870;BME280;47810;42.264;23.826;2023-02-17T14:58:19;94480.13;;;13.67;30.15
61870;BME280;47810;42.264;23.826;2023-02-17T15:00:46;94479.38;;;13.25;30.82
61870;BME280;47810;42.264;23.826;2023-02-17T15:03:12;94487.09;;;13.43;32.04
61870;BME280;47810;42.264;23.826;2023-02-17T15:09:31;94485.00;;;12.79;31.54
61870;BME280;47810;42.264;23.826;2023-02-17T15:12:01;94493.13;;;12.76;31.51
61870;BME280;47810;42.264;23.826;2023-02-17T15:14:34;94497.19;;;12.82;32.07
61870;BME280;47810;42.264;23.826;2023-02-17T15:17:09;94497.00;;;12.85;31.45
61870;BME280;47810;42.264;23.826;2023-02-17T15:22:12;94494.22;;;12.31;33.82
61870;BME280;47810;42.264;23.826;2023-02-17T15:24:45;94500.16;;;12.06;34.74
61870;BME280;47810;42.264;23.826;2023-02-17T15:27:13;94504.66;;;11.75;35.32
61870;BME280;47810;42.264;23.826;2023-02-17T15:32:26;94507.19;;;11.01;36.80
61870;BME280;47810;42.264;23.826;2023-02-17T15:34:52;94504.22;;;10.75;37.32
61870;BME280;47810;42.264;23.826;2023-02-17T15:37:18;94499.63;;;10.14;38.08
61870;BME280;47810;42.264;23.826;2023-02-17T15:39:55;94497.22;;;10.09;38.61
61870;BME280;47810;42.264;23.826;2023-02-17T15:45:36;94510.31;;;10.11;39.19
61870;BME280;47810;42.264;23.826;2023-02-17T15:56:12;94518.16;;;9.62;39.83
61870;BME280;47810;42.264;23.826;2023-02-17T16:01:28;94518.44;;;9.03;40.23
61870;BME280;47810;42.264;23.826;2023-02-17T16:04:05;94528.69;;;9.27;40.35
61870;BME280;47810;42.264;23.826;2023-02-17T16:06:32;94520.06;;;9.06;40.64
61870;BME280;47810;42.264;23.826;2023-02-17T16:08:59;94523.41;;;8.73;40.80
61870;BME280;47810;42.264;23.826;2023-02-17T16:11:25;94536.06;;;8.65;40.65
61870;BME280;47810;42.264;23.826;2023-02-17T16:13:54;94546.47;;;8.68;40.89
61870;BME280;47810;42.264;23.826;2023-02-17T16:16:23;94551.16;;;8.43;41.42
61870;BME280;47810;42.264;23.826;2023-02-17T16:18:50;94557.16;;;8.26;41.15
61870;BME280;47810;42.264;23.826;2023-02-17T16:21:19;94556.66;;;8.36;40.37
61870;BME280;47810;42.264;23.826;2023-02-17T16:23:46;94556.19;;;8.47;40.21
61870;BME280;47810;42.264;23.826;2023-02-17T16:29:21;94558.81;;;8.47;41.76
61870;BME280;47810;42.264;23.826;2023-02-17T16:31:48;94575.03;;;8.17;40.93
61870;BME280;47810;42.264;23.826;2023-02-17T16:34:20;94581.09;;;8.20;40.47
61870;BME280;47810;42.264;23.826;2023-02-17T16:36:46;94589.94;;;8.19;40.82
61870;BME280;47810;42.264;23.826;2023-02-17T16:39:14;94588.41;;;8.13;41.21
61870;BME280;47810;42.264;23.826;2023-02-17T16:41:42;94585.66;;;8.16;41.05
61870;BME280;47810;42.264;23.826;2023-02-17T16:44:18;94580.97;;;8.23;40.83
61870;BME280;47810;42.264;23.826;2023-02-17T16:46:51;94582.22;;;8.14;40.53
61870;BME280;47810;42.264;23.826;2023-02-17T16:49:21;94589.41;;;7.90;41.28
61870;BME280;47810;42.264;23.826;2023-02-17T16:51:50;94589.00;;;7.99;41.45
61870;BME280;47810;42.264;23.826;2023-02-17T16:54:16;94597.22;;;7.71;42.10
61870;BME280;47810;42.264;23.826;2023-02-17T16:56:43;94600.28;;;7.60;42.60
61870;BME280;47810;42.264;23.826;2023-02-17T16:59:13;94599.44;;;7.60;43.27
61870;BME280;47810;42.264;23.826;2023-02-17T17:01:39;94611.84;;;7.36;43.84
61870;BME280;47810;42.264;23.826;2023-02-17T17:04:04;94607.59;;;7.32;43.71
61870;BME280;47810;42.264;23.826;2023-02-17T17:06:32;94607.28;;;6.97;44.55
61870;BME280;47810;42.264;23.826;2023-02-17T17:08:57;94608.72;;;7.04;44.46
61870;BME280;47810;42.264;23.826;2023-02-17T17:11:28;94602.31;;;7.33;43.73
61870;BME280;47810;42.264;23.826;2023-02-17T17:13:55;94604.31;;;7.27;43.10
61870;BME280;47810;42.264;23.826;2023-02-17T17:16:24;94601.34;;;7.56;43.03
61870;BME280;47810;42.264;23.826;2023-02-17T17:18:51;94601.47;;;7.53;42.98
61870;BME280;47810;42.264;23.826;2023-02-17T17:21:18;94604.66;;;7.61;42.78
61870;BME280;47810;42.264;23.826;2023-02-17T17:23:45;94595.25;;;7.56;43.24
61870;BME280;47810;42.264;23.826;2023-02-17T17:26:22;94597.53;;;7.63;42.94
61870;BME280;47810;42.264;23.826;2023-02-17T17:28:48;94602.41;;;7.73;42.61
61870;BME280;47810;42.264;23.826;2023-02-17T17:31:16;94598.13;;;7.70;42.66
61870;BME280;47810;42.264;23.826;2023-02-17T17:33:42;94604.44;;;7.66;43.34
61870;BME280;47810;42.264;23.826;2023-02-17T17:38:40;94600.28;;;7.60;43.52
61870;BME280;47810;42.264;23.826;2023-02-17T17:41:07;94608.97;;;7.42;43.66